Time;durP1;ratioP1;P1;durP2;ratioP2;P2;SDS_P1;SDS_P2;PMS_P1;PMS_P2;Temp;Humidity;BMP_temperature;BMP_pressure;BME280_temperature;BME280_humidity;BME280_pressure;Samples;Min_cycle;Max_cycle;Signal;HPM_P1;HPM_P2
2022/05/15 00:02:36;;;;;;;10.68;3.47;;;;;;;11.21;65.32;101110.84;5002691;28;20120;-75
2022/05/15 00:05:02;;;;;;;13.43;4.60;;;;;;;11.22;65.61;101104.69;4998987;28;20080;-75
2022/05/15 00:07:28;;;;;;;9.27;4.63;;;;;;;11.16;65.33;101105.59;5002832;28;20043;-75
2022/05/15 00:09:53;;;;;;;11.40;4.93;;;;;;;11.08;65.24;101112.63;5001428;28;20039;-75
2022/05/15 00:12:20;;;;;;;16.58;5.47;;;;;;;11.02;65.81;101117.00;5002164;28;20104;-75
2022/05/15 00:14:46;;;;;;;13.27;5.57;;;;;;;10.96;65.68;101116.13;5003226;28;20532;-75
2022/05/15 00:17:12;;;;;;;11.15;5.32;;;;;;;10.94;66.34;101115.22;5002046;28;20045;-75
2022/05/15 00:19:37;;;;;;;13.18;4.43;;;;;;;10.88;65.95;101117.88;5004496;28;20583;-75
2022/05/15 00:22:03;;;;;;;10.40;4.95;;;;;;;10.78;67.04;101121.38;5001012;28;20117;-75
2022/05/15 00:24:29;;;;;;;11.85;4.90;;;;;;;10.76;67.10;101117.84;5003952;28;20061;-75
2022/05/15 00:26:55;;;;;;;9.40;4.28;;;;;;;10.68;68.42;101119.56;5002309;28;20496;-75
2022/05/15 00:29:21;;;;;;;13.27;5.07;;;;;;;10.55;69.51;101117.78;4984911;28;20030;-75
2022/05/15 00:31:46;;;;;;;10.05;4.32;;;;;;;10.50;68.90;101121.25;4978211;28;20041;-75
2022/05/15 00:34:12;;;;;;;16.15;4.85;;;;;;;10.51;68.24;101122.19;4983754;28;20121;-74
2022/05/15 00:36:37;;;;;;;11.30;4.47;;;;;;;10.48;68.26;101122.16;5004248;28;20096;-75
2022/05/15 00:39:05;;;;;;;9.90;4.75;;;;;;;10.40;68.68;101119.50;5000132;28;20026;-75
2022/05/15 00:41:32;;;;;;;9.48;4.20;;;;;;;10.34;68.81;101119.44;4985008;28;20061;-75
2022/05/15 00:43:58;;;;;;;11.25;4.38;;;;;;;10.32;69.14;101118.56;5003030;28;20038;-75
2022/05/15 00:46:30;;;;;;;12.02;5.57;;;;;;;10.27;70.19;101123.84;5001415;28;20489;-75
2022/05/15 00:48:58;;;;;;;14.10;6.10;;;;;;;10.21;70.12;101118.47;4997974;28;20049;-75
2022/05/15 00:51:34;;;;;;;13.20;4.88;;;;;;;10.17;71.59;101115.84;4984779;28;20033;-74
2022/05/15 00:54:19;;;;;;;14.95;5.95;;;;;;;10.09;71.63;101123.72;5003732;28;20048;-74
2022/05/15 00:57:00;;;;;;;13.82;5.35;;;;;;;10.04;72.08;101123.69;4991357;28;20035;-75
2022/05/15 00:59:31;;;;;;;9.93;4.28;;;;;;;10.07;70.60;101131.59;4974145;28;20486;-75
2022/05/15 01:01:57;;;;;;;11.93;4.27;;;;;;;10.04;70.26;101126.31;4983002;28;20233;-75
2022/05/15 01:04:22;;;;;;;8.48;4.68;;;;;;;10.04;69.08;101121.03;4974629;28;20560;-75
2022/05/15 01:06:48;;;;;;;12.35;4.13;;;;;;;10.01;69.84;101120.16;5002030;28;20125;-75
2022/05/15 01:09:14;;;;;;;12.02;3.97;;;;;;;10.00;69.36;101123.66;4985018;28;20030;-75
2022/05/15 01:11:42;;;;;;;10.38;4.22;;;;;;;9.98;69.32;101121.03;4992094;28;20441;-75
2022/05/15 01:14:11;;;;;;;10.13;4.25;;;;;;;9.94;69.66;101124.50;4974268;28;20030;-75
2022/05/15 01:16:38;;;;;;;11.77;4.45;;;;;;;9.90;71.15;101116.56;4972832;28;20034;-75
2022/05/15 01:19:05;;;;;;;12.35;4.20;;;;;;;9.83;71.32;101120.94;4984647;28;20044;-75
2022/05/15 01:21:37;;;;;;;14.00;4.82;;;;;;;9.83;71.70;101128.84;4976505;28;20034;-75
2022/05/15 01:24:05;;;;;;;10.95;4.45;;;;;;;9.82;71.59;101125.31;5000021;28;20508;-75
2022/05/15 01:26:33;;;;;;;12.27;4.97;;;;;;;9.81;71.85;101125.31;4996824;28;20038;-75
2022/05/15 01:28:59;;;;;;;11.98;4.70;;;;;;;9.80;71.49;101126.19;4984668;28;20129;-75
2022/05/15 01:31:26;;;;;;;11.98;4.90;;;;;;;9.83;71.50;101126.19;5001302;28;20094;-75
2022/05/15 01:33:53;;;;;;;12.10;4.00;;;;;;;9.84;71.46;101118.28;4979848;28;20034;-75
2022/05/15 01:36:20;;;;;;;11.88;4.50;;;;;;;9.82;70.69;101125.31;5003273;28;20045;-75
2022/05/15 01:38:47;;;;;;;11.27;5.00;;;;;;;9.82;70.67;101121.78;4971914;28;20030;-75
2022/05/15 01:41:13;;;;;;;15.55;5.60;;;;;;;9.77;71.86;101128.78;4984357;28;20496;-75
2022/05/15 01:43:40;;;;;;;14.88;5.82;;;;;;;9.74;73.17;101123.50;5001602;28;20041;-75
2022/05/15 01:46:07;;;;;;;13.00;5.43;;;;;;;9.63;73.75;101123.41;4983052;28;20060;-75
2022/05/15 01:48:33;;;;;;;12.10;5.20;;;;;;;9.58;73.92;101130.41;5003071;28;20033;-75
2022/05/15 01:50:59;;;;;;;11.98;4.85;;;;;;;9.55;73.42;101126.00;4975070;28;20416;-76
2022/05/15 01:53:25;;;;;;;10.55;4.85;;;;;;;9.52;72.44;101123.34;4984642;28;20053;-75
2022/05/15 01:55:52;;;;;;;10.68;4.72;;;;;;;9.44;72.57;101125.03;4976210;28;20579;-75
2022/05/15 01:58:18;;;;;;;11.63;4.53;;;;;;;9.31;74.08;101125.81;4983263;28;20034;-75
2022/05/15 02:00:44;;;;;;;14.43;5.28;;;;;;;9.33;73.08;101130.22;4973283;28;20124;-75
2022/05/15 02:03:09;;;;;;;8.70;4.55;;;;;;;9.29;73.86;101132.81;4987640;28;20030;-75
2022/05/15 02:05:35;;;;;;;15.38;5.35;;;;;;;9.19;72.99;101130.06;4991313;28;20039;-75
2022/05/15 02:08:02;;;;;;;15.27;6.05;;;;;;;9.11;73.17;101129.13;4984421;28;20030;-75
2022/05/15 02:10:28;;;;;;;12.18;4.95;;;;;;;9.11;73.51;101129.13;4980020;28;20032;-75
2022/05/15 02:12:53;;;;;;;12.98;5.20;;;;;;;9.12;74.08;101130.03;4960648;28;20025;-75
2022/05/15 02:15:20;;;;;;;12.15;5.47;;;;;;;9.14;74.24;101137.09;4982312;28;20112;-75
2022/05/15 02:17:45;;;;;;;13.88;4.88;;;;;;;9.09;74.71;101133.53;4990634;28;20512;-75
2022/05/15 02:20:12;;;;;;;11.00;5.03;;;;;;;9.11;74.49;101129.13;4985165;28;20048;-75
2022/05/15 02:22:38;;;;;;;16.92;5.70;;;;;;;9.07;74.86;101127.34;5000726;28;20034;-75
2022/05/15 02:25:06;;;;;;;11.48;5.13;;;;;;;9.05;75.40;101129.06;4983336;28;20034;-75
2022/05/15 02:27:37;;;;;;;14.57;5.90;;;;;;;9.02;75.85;101128.19;4973871;28;20238;-75
2022/05/15 02:30:04;;;;;;;13.60;5.47;;;;;;;9.02;75.77;101130.81;4985320;28;20117;-75
2022/05/15 02:32:29;;;;;;;9.70;4.78;;;;;;;8.83;76.33;101128.00;5005090;28;20034;-75
2022/05/15 02:34:55;;;;;;;9.82;4.15;;;;;;;8.84;75.33;101135.00;5004955;28;20516;-75
2022/05/15 02:37:20;;;;;;;8.80;3.88;;;;;;;8.84;74.83;101136.75;5002832;28;20054;-75
2022/05/15 02:39:46;;;;;;;9.85;3.67;;;;;;;8.76;74.00;101137.56;4977561;28;20482;-75
2022/05/15 02:42:12;;;;;;;11.52;4.45;;;;;;;8.66;75.11;101143.59;4993624;28;20062;-75
2022/05/15 02:44:38;;;;;;;10.50;4.40;;;;;;;8.56;75.93;101141.72;4988264;28;20067;-75
2022/05/15 02:47:05;;;;;;;11.88;3.83;;;;;;;8.49;75.54;101142.53;4978903;28;20030;-75
2022/05/15 02:52:15;;;;;;;11.48;4.05;;;;;;;8.47;75.72;101138.97;5000733;28;20037;-75
2022/05/15 02:54:40;;;;;;;12.68;4.55;;;;;;;8.52;75.33;101147.81;4986359;28;20041;-75
2022/05/15 02:57:08;;;;;;;12.45;4.07;;;;;;;8.55;75.59;101147.84;4985044;28;20065;-75
2022/05/15 02:59:34;;;;;;;10.77;5.15;;;;;;;8.54;74.95;101139.06;4985204;28;20038;-74
2022/05/15 03:02:00;;;;;;;11.57;4.78;;;;;;;8.52;75.55;101148.69;4972833;28;20085;-75
2022/05/15 03:04:26;;;;;;;11.48;4.32;;;;;;;8.49;75.22;101148.66;5001991;28;20034;-75
2022/05/15 03:06:52;;;;;;;13.95;5.18;;;;;;;8.45;76.03;101146.84;4995206;28;20061;-75
2022/05/15 03:09:18;;;;;;;11.75;4.60;;;;;;;8.44;76.02;101146.84;4999697;28;20038;-75
2022/05/15 03:11:43;;;;;;;9.27;4.50;;;;;;;8.43;75.03;101148.56;4992713;28;20057;-75
2022/05/15 03:14:09;;;;;;;12.02;4.75;;;;;;;8.44;75.05;101154.72;5004399;28;20072;-75
2022/05/15 03:16:35;;;;;;;14.48;5.03;;;;;;;8.40;75.34;101151.16;4993625;28;20034;-75
2022/05/15 03:19:01;;;;;;;9.13;4.55;;;;;;;8.41;75.59;101152.03;4987318;28;20129;-75
2022/05/15 03:21:29;;;;;;;12.07;4.50;;;;;;;8.42;75.04;101156.44;4994633;28;20158;-75
2022/05/15 03:23:56;;;;;;;11.40;4.30;;;;;;;8.41;75.37;101154.66;4985396;28;20030;-75
2022/05/15 03:26:22;;;;;;;13.05;5.78;;;;;;;8.40;75.10;101158.19;5005482;28;20041;-75
2022/05/15 03:28:47;;;;;;;8.52;4.25;;;;;;;8.32;74.44;101156.28;4984534;28;20129;-75
2022/05/15 03:31:13;;;;;;;9.90;4.25;;;;;;;8.33;75.07;101151.91;4987292;28;20037;-75
2022/05/15 03:33:38;;;;;;;8.88;3.63;;;;;;;8.33;75.00;101158.06;4978457;28;20045;-75
2022/05/15 03:36:10;;;;;;;10.77;3.83;;;;;;;8.31;75.47;101157.16;4983246;28;20038;-75
2022/05/15 03:38:38;;;;;;;6.05;3.17;;;;;;;8.27;75.64;101159.72;4966111;28;20092;-75
2022/05/15 03:41:03;;;;;;;10.07;4.30;;;;;;;8.22;76.61;101167.53;4989606;28;20034;-76
2022/05/15 03:43:29;;;;;;;16.85;5.40;;;;;;;8.21;77.28;101171.03;5003817;28;20381;-75
2022/05/15 03:45:54;;;;;;;11.77;4.78;;;;;;;8.15;77.33;101170.97;5002325;28;20038;-75
2022/05/15 03:48:20;;;;;;;10.55;4.65;;;;;;;8.20;77.38;101171.91;5001697;28;20404;-75
2022/05/15 03:50:45;;;;;;;7.43;4.18;;;;;;;8.32;76.58;101166.81;5004396;28;20034;-75
2022/05/15 03:53:11;;;;;;;9.27;4.30;;;;;;;8.40;76.14;101171.31;5000210;28;20070;-75
2022/05/15 03:55:36;;;;;;;10.88;4.63;;;;;;;8.42;76.26;101172.25;5001651;28;20038;-75
2022/05/15 03:58:02;;;;;;;7.43;3.70;;;;;;;8.48;76.20;101178.44;5004367;28;20529;-75
2022/05/15 04:00:28;;;;;;;10.02;3.75;;;;;;;8.55;76.48;101175.03;4977814;28;20026;-75
2022/05/15 04:02:55;;;;;;;11.18;4.78;;;;;;;8.65;75.98;101172.53;4984928;28;20033;-75
2022/05/15 04:05:21;;;;;;;12.13;4.80;;;;;;;8.73;76.32;101173.50;4975701;28;20030;-75
2022/05/15 04:07:50;;;;;;;10.68;5.15;;;;;;;8.76;76.14;101176.16;4975826;28;20038;-75
2022/05/15 04:10:18;;;;;;;9.98;5.00;;;;;;;8.87;75.69;101178.91;4986397;28;20037;-75
2022/05/15 04:12:44;;;;;;;7.22;3.97;;;;;;;8.95;75.83;101186.00;4977255;28;20492;-75
2022/05/15 04:15:10;;;;;;;8.57;4.88;;;;;;;9.05;75.40;101189.63;4984747;28;20041;-75
2022/05/15 04:17:41;;;;;;;10.10;5.32;;;;;;;9.13;75.35;101185.34;4975209;28;20440;-75
2022/05/15 04:20:07;;;;;;;18.63;6.20;;;;;;;9.16;75.27;101179.22;4980214;28;20204;-75
2022/05/15 04:22:32;;;;;;;12.35;5.50;;;;;;;9.22;75.26;101187.16;4993007;28;20032;-75
2022/05/15 04:24:58;;;;;;;11.63;6.15;;;;;;;9.35;74.49;101186.44;5002767;28;20038;-75
2022/05/15 04:27:24;;;;;;;11.07;5.20;;;;;;;9.47;74.36;101188.28;4978209;28;20081;-75
2022/05/15 04:29:51;;;;;;;9.90;5.60;;;;;;;9.50;74.71;101190.06;4981174;28;20029;-75
2022/05/15 04:32:16;;;;;;;12.35;5.40;;;;;;;9.50;75.36;101187.44;5002309;28;20404;-75
2022/05/15 04:34:42;;;;;;;12.13;5.07;;;;;;;9.59;74.92;101195.44;4975794;28;20039;-75
2022/05/15 04:37:07;;;;;;;14.00;5.30;;;;;;;9.74;74.82;101197.28;5003061;28;20484;-75
2022/05/15 04:39:34;;;;;;;11.35;5.65;;;;;;;9.91;74.02;101190.41;5000329;28;20033;-75
2022/05/15 04:42:00;;;;;;;13.07;5.18;;;;;;;10.07;73.72;101194.91;4977889;28;20116;-75
2022/05/15 04:44:26;;;;;;;11.02;5.05;;;;;;;10.13;73.58;101196.69;5000914;28;20070;-75
2022/05/15 04:46:51;;;;;;;10.02;5.70;;;;;;;10.25;73.66;101193.25;5004056;28;20030;-75
2022/05/15 04:49:17;;;;;;;10.05;4.53;;;;;;;10.40;73.16;101205.66;5001060;28;20378;-74
2022/05/15 04:51:42;;;;;;;8.80;4.40;;;;;;;10.51;72.86;101207.50;5002481;28;20065;-74
2022/05/15 04:54:07;;;;;;;9.60;4.00;;;;;;;10.63;72.87;101203.16;5000565;28;20077;-75
2022/05/15 04:56:33;;;;;;;11.82;4.60;;;;;;;10.73;72.01;101208.47;5001689;28;20100;-75
2022/05/15 04:58:58;;;;;;;12.57;5.30;;;;;;;10.83;71.70;101208.53;4974766;28;20034;-75
2022/05/15 05:01:25;;;;;;;10.48;4.65;;;;;;;10.86;71.72;101209.41;5003451;28;20484;-75
2022/05/15 05:03:55;;;;;;;11.68;4.40;;;;;;;10.99;71.63;101212.97;5000784;28;20042;-75
2022/05/15 05:06:21;;;;;;;12.35;5.30;;;;;;;11.13;71.02;101210.34;5002398;28;20084;-75
2022/05/15 05:08:47;;;;;;;11.02;5.10;;;;;;;11.16;70.96;101210.34;4995565;28;20093;-75
2022/05/15 05:11:13;;;;;;;17.05;4.95;;;;;;;11.26;70.69;101214.78;4974484;28;20038;-75
2022/05/15 05:13:38;;;;;;;11.65;5.28;;;;;;;11.36;70.54;101215.69;5003482;28;20055;-75
2022/05/15 05:16:04;;;;;;;12.93;5.05;;;;;;;11.46;70.46;101221.88;5000521;28;20129;-75
2022/05/15 05:18:29;;;;;;;10.13;5.10;;;;;;;11.61;70.31;101220.13;5002723;28;20348;-75
2022/05/15 05:20:55;;;;;;;11.25;4.75;;;;;;;11.79;69.99;101231.59;5001590;28;20042;-75
2022/05/15 05:23:20;;;;;;;9.95;4.40;;;;;;;11.92;69.38;101222.81;4984934;28;20088;-75
2022/05/15 05:25:45;;;;;;;10.00;4.35;;;;;;;12.02;69.31;101229.84;5002730;28;20072;-75
2022/05/15 05:28:10;;;;;;;10.40;4.20;;;;;;;12.14;68.32;101234.25;5000224;28;20088;-75
2022/05/15 05:30:37;;;;;;;8.48;4.28;;;;;;;12.26;68.54;101236.88;5003222;28;20081;-75
2022/05/15 05:33:03;;;;;;;10.00;4.72;;;;;;;12.34;67.82;101235.97;5000700;28;20520;-75
2022/05/15 05:35:29;;;;;;;11.50;4.30;;;;;;;12.43;67.31;101238.59;5006119;28;20037;-75
2022/05/15 05:37:54;;;;;;;7.88;4.05;;;;;;;12.58;67.30;101235.91;4999626;28;20034;-75
2022/05/15 05:40:21;;;;;;;11.65;3.97;;;;;;;12.74;67.17;101236.75;5000458;28;20386;-74
2022/05/15 05:42:46;;;;;;;7.07;4.03;;;;;;;12.84;66.35;101237.59;4974487;28;20038;-75
2022/05/15 05:45:13;;;;;;;11.35;4.30;;;;;;;12.91;66.44;101234.00;4997808;28;20412;-75
2022/05/15 05:47:38;;;;;;;11.10;4.35;;;;;;;13.05;66.25;101242.78;5002009;28;20043;-75
2022/05/15 05:50:09;;;;;;;12.30;4.68;;;;;;;13.22;65.40;101244.47;4999262;28;20043;-74
2022/05/15 05:52:39;;;;;;;9.35;3.85;;;;;;;13.32;64.81;101248.84;4995993;28;20501;-75
2022/05/15 05:55:05;;;;;;;7.63;3.30;;;;;;;13.42;64.40;101237.31;4979253;28;20093;-74
2022/05/15 05:57:30;;;;;;;7.88;3.67;;;;;;;13.51;63.87;101239.88;4994543;28;20030;-74
2022/05/15 05:59:56;;;;;;;7.15;3.05;;;;;;;13.61;63.35;101246.00;4997548;28;20041;-75
2022/05/15 06:02:22;;;;;;;7.80;3.22;;;;;;;13.72;62.88;101244.16;4998835;28;20038;-75
2022/05/15 06:04:50;;;;;;;7.43;2.70;;;;;;;13.82;62.66;101252.94;4998651;28;20061;-74
2022/05/15 06:07:23;;;;;;;7.85;3.10;;;;;;;13.92;62.05;101253.75;5000379;28;20497;-74
2022/05/15 06:09:50;;;;;;;7.05;3.00;;;;;;;14.03;61.88;101254.53;5000094;28;20062;-74
2022/05/15 06:12:18;;;;;;;6.68;2.85;;;;;;;14.11;61.13;101249.13;4982998;28;20077;-75
2022/05/15 06:14:43;;;;;;;7.32;2.80;;;;;;;14.21;60.41;101245.50;5000204;28;20029;-74
2022/05/15 06:17:10;;;;;;;9.32;2.92;;;;;;;14.33;60.57;101255.13;5001486;28;20037;-76
2022/05/15 06:19:35;;;;;;;7.97;3.15;;;;;;;14.40;60.67;101256.81;4973195;28;20037;-74
2022/05/15 06:22:01;;;;;;;7.97;2.63;;;;;;;14.48;60.22;101250.53;4994029;28;20420;-74
2022/05/15 06:24:27;;;;;;;5.95;2.50;;;;;;;14.59;59.58;101252.22;5000011;28;20401;-74
2022/05/15 06:26:54;;;;;;;6.20;2.00;;;;;;;14.74;59.35;101256.47;5002997;28;20033;-74
2022/05/15 06:29:19;;;;;;;6.95;2.08;;;;;;;14.80;58.12;101252.00;4983162;28;20081;-74
2022/05/15 06:31:46;;;;;;;8.00;2.10;;;;;;;14.84;56.49;101250.16;5003757;28;20065;-74
2022/05/15 06:34:13;;;;;;;6.38;1.88;;;;;;;14.92;55.95;101250.94;5005536;28;20038;-74
2022/05/15 06:36:40;;;;;;;5.35;1.65;;;;;;;15.00;55.73;101245.53;5000393;28;20416;-74
2022/05/15 06:39:05;;;;;;;6.88;2.38;;;;;;;15.11;56.12;101247.13;4997108;28;20042;-74
2022/05/15 06:41:31;;;;;;;5.63;2.03;;;;;;;15.18;54.91;101250.59;4995052;28;20041;-74
2022/05/15 06:43:57;;;;;;;6.43;1.98;;;;;;;15.28;55.03;101251.38;5001961;28;20205;-75
2022/05/15 06:46:22;;;;;;;8.15;2.15;;;;;;;15.37;54.71;101253.00;5005719;28;20046;-75
2022/05/15 06:48:49;;;;;;;7.65;2.30;;;;;;;15.38;55.03;101254.75;5003485;28;20104;-75
2022/05/15 06:51:16;;;;;;;7.22;1.80;;;;;;;15.41;54.55;101257.38;5004157;28;20041;-76
2022/05/15 06:53:49;;;;;;;8.23;2.05;;;;;;;15.53;54.53;101249.22;4987843;28;20026;-76
2022/05/15 06:58:59;;;;;;;6.35;1.70;;;;;;;15.77;53.52;101242.66;5002072;28;20778;-75
2022/05/15 07:01:25;;;;;;;5.30;1.80;;;;;;;15.81;53.54;101243.50;5005539;28;20041;-76
2022/05/15 07:03:50;;;;;;;4.50;1.35;;;;;;;15.94;53.37;101243.25;4993837;28;20035;-75
2022/05/15 07:06:16;;;;;;;5.43;1.90;;;;;;;16.03;52.96;101244.88;5003985;28;20061;-76
2022/05/15 07:08:42;;;;;;;5.75;2.03;;;;;;;16.12;52.75;101249.19;4994795;28;20042;-75
2022/05/15 07:11:10;;;;;;;5.43;1.50;;;;;;;16.23;52.64;101251.66;4994800;28;20390;-75
2022/05/15 07:13:36;;;;;;;5.70;2.13;;;;;;;16.30;52.50;101248.84;4997211;28;20038;-75
2022/05/15 07:16:01;;;;;;;6.68;1.70;;;;;;;16.36;52.34;101253.19;4996602;28;20041;-76
2022/05/15 07:18:27;;;;;;;5.60;1.70;;;;;;;16.35;51.93;101254.09;4995140;28;20038;-74
2022/05/15 07:20:52;;;;;;;6.38;2.00;;;;;;;16.39;51.95;101246.00;4999643;28;20038;-76
2022/05/15 07:23:19;;;;;;;6.00;1.80;;;;;;;16.46;51.70;101253.91;4996401;28;20038;-76
2022/05/15 07:25:45;;;;;;;5.85;1.73;;;;;;;16.51;51.64;101252.91;4998564;28;20030;-75
2022/05/15 07:28:10;;;;;;;4.82;1.90;;;;;;;16.63;51.46;101247.31;5002775;28;20121;-75
2022/05/15 07:30:36;;;;;;;5.75;1.70;;;;;;;16.65;51.37;101255.28;4999386;28;20038;-76
2022/05/15 07:33:01;;;;;;;7.25;2.10;;;;;;;16.63;50.53;101244.63;5001891;28;20173;-76
2022/05/15 07:35:28;;;;;;;5.13;1.80;;;;;;;16.62;50.73;101250.03;5004300;28;20548;-77
2022/05/15 07:37:54;;;;;;;5.78;1.75;;;;;;;16.61;50.81;101250.91;5004342;28;20496;-77
2022/05/15 07:40:20;;;;;;;8.27;2.08;;;;;;;16.73;50.61;101247.13;4984795;28;20034;-77
2022/05/15 07:42:45;;;;;;;5.80;2.08;;;;;;;16.81;50.39;101243.44;4975988;28;20449;-77
2022/05/15 07:45:12;;;;;;;6.28;2.00;;;;;;;16.93;50.34;101249.44;4985844;28;20459;-76
2022/05/15 07:47:39;;;;;;;5.95;1.85;;;;;;;17.04;50.05;101250.06;5001616;28;20564;-77
2022/05/15 07:50:06;;;;;;;6.85;1.92;;;;;;;17.01;49.21;101248.34;4976890;28;20027;-77
2022/05/15 07:52:31;;;;;;;7.65;1.73;;;;;;;16.96;49.54;101252.91;4998097;28;20048;-78
2022/05/15 07:54:57;;;;;;;7.20;2.20;;;;;;;17.04;50.17;101248.28;4991722;28;20026;-77
2022/05/15 07:57:22;;;;;;;6.95;1.90;;;;;;;17.21;49.96;101239.94;4996904;28;20397;-77
2022/05/15 07:59:48;;;;;;;6.88;1.67;;;;;;;17.23;48.09;101247.88;5000505;28;20660;-77
2022/05/15 08:02:13;;;;;;;4.65;1.52;;;;;;;17.23;48.18;101247.88;5003830;28;20032;-77
2022/05/15 08:10:08;;;;;;;10.02;2.20;;;;;;;17.35;47.41;101247.63;4995295;28;20089;-77
2022/05/15 08:12:36;;;;;;;7.72;1.77;;;;;;;17.43;47.49;101242.09;5002853;28;20065;-77
2022/05/15 08:15:04;;;;;;;5.25;1.52;;;;;;;17.46;46.82;101240.22;5003443;28;20042;-77
2022/05/15 08:17:29;;;;;;;6.60;1.70;;;;;;;17.45;47.31;101235.81;5001988;28;20592;-77
2022/05/15 08:25:23;;;;;;;6.30;1.83;;;;;;;17.92;46.74;101243.59;4997003;28;20121;-75
2022/05/15 08:27:48;;;;;;;5.00;1.63;;;;;;;17.96;46.69;101240.81;4991563;28;20172;-74
2022/05/15 08:30:15;;;;;;;7.90;1.70;;;;;;;18.10;46.19;101236.91;5002214;28;20037;-74
2022/05/15 08:32:41;;;;;;;5.18;1.85;;;;;;;18.16;45.19;101226.09;4995785;28;20042;-74
2022/05/15 08:35:07;;;;;;;6.57;1.83;;;;;;;17.94;45.70;101231.97;4999880;28;20041;-74
2022/05/15 08:37:32;;;;;;;5.95;1.80;;;;;;;18.14;45.32;101227.91;4976503;28;20397;-74
2022/05/15 08:39:57;;;;;;;4.82;1.55;;;;;;;18.30;45.34;101237.25;4999567;28;20088;-74
2022/05/15 08:42:35;;;;;;;10.27;1.92;;;;;;;18.25;44.13;101230.28;5001909;28;20033;-75
2022/05/15 08:45:02;;;;;;;5.10;1.77;;;;;;;18.23;44.39;101233.00;4998897;28;20038;-74
2022/05/15 08:47:32;;;;;;;5.88;1.83;;;;;;;18.31;43.97;101230.13;5001202;28;20070;-74
2022/05/15 08:50:02;;;;;;;6.57;1.83;;;;;;;18.50;44.05;101222.50;5002942;28;20461;-74
2022/05/15 08:52:47;;;;;;;7.40;1.70;;;;;;;18.58;43.42;101232.03;4997824;28;20429;-74
2022/05/15 08:55:24;;;;;;;5.65;1.65;;;;;;;18.74;43.79;101228.94;5000539;28;20449;-74
2022/05/15 08:57:54;;;;;;;4.72;1.50;;;;;;;18.92;43.88;101227.56;5002044;28;20038;-74
2022/05/15 09:00:42;;;;;;;6.45;1.42;;;;;;;19.14;42.94;101231.31;5003699;28;20041;-74
2022/05/15 09:03:16;;;;;;;5.00;1.33;;;;;;;19.26;42.58;101232.75;5001359;28;20045;-74
2022/05/15 09:06:01;;;;;;;7.53;1.38;;;;;;;19.26;41.76;101222.06;4998323;28;20034;-74
2022/05/15 09:08:26;;;;;;;5.13;1.50;;;;;;;19.31;41.54;101220.09;4996350;28;20038;-74
2022/05/15 09:11:02;;;;;;;6.65;1.63;;;;;;;19.11;41.42;101228.75;5001127;28;20466;-74
2022/05/15 09:13:38;;;;;;;7.32;1.73;;;;;;;19.10;41.35;101220.75;5000809;28;20038;-74
2022/05/15 09:16:09;;;;;;;5.90;1.70;;;;;;;19.27;41.71;101210.41;4998721;28;20038;-74
2022/05/15 09:18:37;;;;;;;5.97;1.48;;;;;;;19.31;41.07;101212.09;5001139;28;20034;-74
2022/05/15 09:21:11;;;;;;;7.18;1.70;;;;;;;19.46;41.23;101213.38;5003250;28;20037;-74
2022/05/15 09:23:47;;;;;;;7.47;1.80;;;;;;;19.60;39.86;101213.81;4999167;28;20607;-74
2022/05/15 09:26:17;;;;;;;7.95;2.03;;;;;;;19.63;39.75;101211.03;5003274;28;20036;-74
2022/05/15 09:28:45;;;;;;;5.90;1.42;;;;;;;19.56;39.53;101208.59;5000659;28;20042;-74
2022/05/15 09:31:24;;;;;;;5.43;1.63;;;;;;;19.64;39.49;101215.44;5001567;28;20035;-74
2022/05/15 09:34:26;;;;;;;5.65;1.52;;;;;;;19.65;38.50;101213.69;4996717;28;20042;-74
2022/05/15 09:38:26;;;;;;;6.55;1.85;;;;;;;19.76;39.44;101205.31;4991560;28;20500;-74
2022/05/15 09:39:44;;;;;;;7.35;1.60;;;;;;;19.93;39.85;101205.59;4997209;28;20029;-74
2022/05/15 09:45:17;;;;;;;4.20;1.52;;;;;;;19.97;38.27;101215.28;5002246;28;20042;-75
2022/05/15 09:48:01;;;;;;;6.93;1.75;;;;;;;20.13;38.62;101212.94;5000364;28;20038;-74
2022/05/15 09:50:47;;;;;;;4.32;1.40;;;;;;;20.34;38.59;101209.50;4998967;28;20041;-74
2022/05/15 09:53:24;;;;;;;5.82;2.05;;;;;;;20.38;38.03;101204.03;4972868;28;20049;-74
2022/05/15 09:56:11;;;;;;;5.50;1.65;;;;;;;20.50;38.02;101204.47;4995785;28;20046;-74
2022/05/15 09:58:45;;;;;;;4.30;1.55;;;;;;;20.82;37.47;101199.72;5000018;28;20038;-74
2022/05/15 10:01:14;;;;;;;10.13;2.10;;;;;;;20.86;36.71;101206.75;4996599;28;20034;-74
2022/05/15 10:03:40;;;;;;;4.03;1.35;;;;;;;20.88;36.76;101194.16;4999472;28;20080;-74
2022/05/15 10:06:08;;;;;;;5.78;1.77;;;;;;;21.06;36.92;101191.66;5002084;28;20057;-74
2022/05/15 10:08:35;;;;;;;6.28;1.52;;;;;;;21.18;36.99;101185.81;4999342;28;20093;-74
2022/05/15 10:11:15;;;;;;;5.75;1.52;;;;;;;21.47;36.54;101178.44;4982472;28;20034;-74
2022/05/15 10:13:45;;;;;;;3.90;1.30;;;;;;;21.54;35.90;101177.25;5000071;28;20035;-74
2022/05/15 10:16:17;;;;;;;6.70;1.88;;;;;;;21.64;35.59;101178.59;4979251;28;20042;-74
2022/05/15 10:18:50;;;;;;;6.13;1.42;;;;;;;21.73;35.87;101172.84;5001070;28;20034;-74
2022/05/15 10:21:15;;;;;;;4.90;1.42;;;;;;;21.64;35.73;101176.78;5002466;28;20124;-74
2022/05/15 10:23:49;;;;;;;4.93;1.80;;;;;;;21.29;35.79;101178.19;4999808;28;20113;-74
2022/05/15 10:26:21;;;;;;;5.10;1.40;;;;;;;21.18;36.83;101175.09;5000100;28;20030;-74
2022/05/15 10:29:04;;;;;;;7.00;1.73;;;;;;;21.61;36.00;101162.59;4981959;28;20041;-74
2022/05/15 10:31:32;;;;;;;5.20;1.48;;;;;;;21.99;35.09;101165.47;4999649;28;20046;-74
2022/05/15 10:34:01;;;;;;;3.45;1.23;;;;;;;22.36;35.04;101171.94;4999428;28;20561;-74
2022/05/15 10:36:56;;;;;;;4.72;1.33;;;;;;;22.66;33.77;101169.66;4981762;28;20042;-74
2022/05/15 10:39:58;;;;;;;5.13;1.30;;;;;;;22.47;33.72;101154.34;4995869;28;20089;-74
2022/05/15 10:42:58;;;;;;;5.60;1.73;;;;;;;22.65;33.75;101147.25;5001843;28;20064;-74
2022/05/15 10:45:41;;;;;;;6.18;1.27;;;;;;;22.76;33.15;101147.63;4997166;28;20034;-74
2022/05/15 10:48:12;;;;;;;4.07;1.25;;;;;;;22.91;33.45;101147.84;4995566;28;20409;-74
2022/05/15 10:51:15;;;;;;;4.73;1.70;;;;;;;22.22;33.81;101143.88;5001497;28;20041;-74
2022/05/15 10:57:21;;;;;;;5.85;1.73;;;;;;;22.69;32.93;101143.50;5004513;28;20090;-74
2022/05/15 10:59:57;;;;;;;5.53;1.40;;;;;;;22.75;32.90;101142.31;5005191;28;20114;-74
2022/05/15 11:02:35;;;;;;;3.97;1.33;;;;;;;22.81;32.35;101141.16;5001064;28;20034;-74
2022/05/15 11:05:04;;;;;;;6.68;1.70;;;;;;;22.37;33.76;101136.03;5002655;28;20042;-74
2022/05/15 11:07:51;;;;;;;5.10;1.42;;;;;;;22.48;33.33;101139.13;5005228;28;20048;-75
2022/05/15 11:10:31;;;;;;;4.57;1.20;;;;;;;22.60;32.46;101135.84;4996099;28;20034;-75
2022/05/15 11:13:10;;;;;;;4.90;1.55;;;;;;;22.83;32.83;101133.91;5002488;28;20042;-74
2022/05/15 11:15:46;;;;;;;4.82;1.13;;;;;;;23.09;32.32;101129.97;5001781;28;20117;-74
2022/05/15 11:18:33;;;;;;;4.40;1.25;;;;;;;23.47;32.45;101128.06;5002495;28;20086;-74
2022/05/15 11:21:03;;;;;;;3.22;1.15;;;;;;;23.83;31.67;101124.47;5002115;28;20038;-74
2022/05/15 11:23:43;;;;;;;3.35;0.98;;;;;;;23.96;30.83;101122.88;5004988;28;20037;-74
2022/05/15 11:26:14;;;;;;;5.45;1.17;;;;;;;24.02;31.22;101122.53;5001566;28;20404;-74
2022/05/15 11:28:47;;;;;;;5.25;1.55;;;;;;;24.17;30.21;101119.97;4999954;28;20042;-74
2022/05/15 11:31:17;;;;;;;4.15;1.58;;;;;;;24.39;29.65;101111.59;5003208;28;20398;-74
2022/05/15 11:34:03;;;;;;;4.25;1.30;;;;;;;24.57;28.83;101109.75;5005279;28;20034;-74
2022/05/15 11:36:35;;;;;;;5.75;1.58;;;;;;;24.62;28.56;101107.66;5005349;28;20048;-74
2022/05/15 11:39:04;;;;;;;;;;;;;;;24.50;28.88;101098.44;4998492;28;20034;-74
2022/05/15 11:41:35;;;;;;;5.45;1.50;;;;;;;24.69;28.58;101099.13;5001974;28;19913;-74
2022/05/15 11:44:20;;;;;;;4.47;1.60;;;;;;;24.76;28.16;101091.59;5005109;28;20088;-75
2022/05/15 11:46:46;;;;;;;3.78;1.52;;;;;;;24.58;28.73;101081.81;5003477;28;20041;-74
2022/05/15 11:49:24;;;;;;;3.90;1.45;;;;;;;24.77;28.50;101081.66;5001852;28;20030;-74
2022/05/15 11:52:05;;;;;;;4.82;1.52;;;;;;;25.09;28.22;101077.94;5001238;28;20048;-74
2022/05/15 11:54:43;;;;;;;4.50;1.27;;;;;;;25.62;27.67;101089.28;4998986;28;20043;-75
2022/05/15 11:57:13;;;;;;;3.90;1.35;;;;;;;25.78;27.60;101082.00;5002249;28;20113;-74